createdAt,value
2023-07-14T00:34:59.084Z,17.60
2023-07-14T00:38:42.244Z,17.50
2023-07-14T00:42:24.747Z,17.46
2023-07-14T00:46:14.364Z,17.43
2023-07-14T00:50:03.484Z,17.42
2023-07-14T01:17:57.237Z,17.26
2023-07-14T01:21:46.153Z,17.22
2023-07-14T01:25:35.557Z,17.17
2023-07-14T01:29:25.839Z,17.14
2023-07-14T01:33:17.987Z,17.08
2023-07-14T01:56:16.452Z,16.96
2023-07-14T02:00:08.628Z,16.87
2023-07-14T02:03:57.870Z,16.82
2023-07-14T02:07:47.714Z,16.74
2023-07-14T02:11:35.996Z,16.68
2023-07-14T02:15:25.407Z,16.64
2023-07-14T02:27:15.945Z,16.43
2023-07-14T02:31:15.488Z,16.40
2023-07-14T02:35:05.301Z,16.38
2023-07-14T02:42:30.452Z,16.30
2023-07-14T02:46:19.344Z,16.29
2023-07-14T03:05:44.836Z,16.28
2023-07-14T03:09:35.794Z,16.31
2023-07-14T03:13:32.072Z,16.35
2023-07-14T03:32:38.531Z,16.50
2023-07-14T03:36:27.824Z,16.61
2023-07-14T03:40:20.600Z,16.68
2023-07-14T03:44:18.486Z,16.76
2023-07-14T04:04:04.190Z,16.81
2023-07-14T04:07:51.143Z,16.81
2023-07-14T04:11:41.027Z,16.84
2023-07-14T04:15:29.008Z,16.85
2023-07-14T04:18:56.316Z,16.86
2023-07-14T04:22:45.287Z,16.92
2023-07-14T04:26:33.257Z,17.01
2023-07-14T04:30:22.022Z,17.09
2023-07-14T04:45:38.812Z,17.72
2023-07-14T04:49:11.303Z,17.91
2023-07-14T04:53:00.556Z,18.05
2023-07-14T05:23:20.987Z,18.19
2023-07-14T05:27:10.217Z,18.13
2023-07-14T05:31:01.550Z,18.14
2023-07-14T05:34:43.874Z,18.19
2023-07-14T05:54:11.824Z,18.74
2023-07-14T05:57:39.588Z,18.88
2023-07-14T06:01:28.922Z,19.08
2023-07-14T06:05:01.911Z,19.22
2023-07-14T06:08:51.908Z,19.39
2023-07-14T06:12:40.884Z,19.57
2023-07-14T06:47:35.943Z,22.16
2023-07-14T06:53:31.807Z,22.37
2023-07-14T06:56:00.447Z,22.50
2023-07-14T06:58:43.409Z,22.71
2023-07-14T07:01:32.448Z,22.99
2023-07-14T07:04:16.576Z,23.41
2023-07-14T07:07:29.541Z,23.92
2023-07-14T07:09:58.130Z,24.40
2023-07-14T07:12:28.972Z,24.73
2023-07-14T07:15:11.583Z,24.92
2023-07-14T07:17:44.894Z,25.25
2023-07-14T07:20:20.712Z,25.65
2023-07-14T07:22:54.750Z,25.90
2023-07-14T07:26:00.692Z,26.10
2023-07-14T07:28:56.369Z,26.18
2023-07-14T07:31:31.145Z,26.18
2023-07-14T07:33:59.737Z,26.39
2023-07-14T07:36:41.467Z,26.60
2023-07-14T07:39:13.058Z,26.73
2023-07-14T07:41:48.548Z,26.70
2023-07-14T07:44:19.429Z,26.73
2023-07-14T07:47:31.133Z,26.86
2023-07-14T07:50:02.533Z,26.88
2023-07-14T07:52:32.550Z,26.99
2023-07-14T07:55:09.778Z,27.20
2023-07-14T07:57:58.514Z,27.37
2023-07-14T08:00:51.613Z,27.49
2023-07-14T08:03:20.379Z,27.53
2023-07-14T08:06:12.724Z,27.44
2023-07-14T08:09:01.648Z,27.61
2023-07-14T08:11:40.180Z,27.73
2023-07-14T08:15:09.234Z,28.02
2023-07-14T08:17:58.306Z,28.09
2023-07-14T08:20:46.331Z,28.07
2023-07-14T08:23:48.762Z,28.28
2023-07-14T08:26:38.471Z,28.27
2023-07-14T08:29:29.342Z,28.33
2023-07-14T08:31:57.975Z,28.49
2023-07-14T08:34:30.723Z,28.66
2023-07-14T08:38:08.936Z,28.85
2023-07-14T08:41:03.550Z,28.99
2023-07-14T08:43:42.440Z,28.73
2023-07-14T08:46:47.971Z,28.69
2023-07-14T08:49:42.033Z,28.65
2023-07-14T08:53:04.112Z,28.57
2023-07-14T08:55:38.419Z,28.75
2023-07-14T08:58:28.442Z,28.73
2023-07-14T09:01:35.588Z,28.66
2023-07-14T09:04:30.184Z,28.59
2023-07-14T09:07:30.826Z,28.47
2023-07-14T09:10:02.937Z,28.53
2023-07-14T09:12:50.521Z,28.64
2023-07-14T09:15:45.157Z,28.57
2023-07-14T09:18:58.187Z,28.45
2023-07-14T09:22:05.150Z,28.23
2023-07-14T09:25:14.804Z,27.50
2023-07-14T09:27:46.066Z,27.01
2023-07-14T09:31:05.247Z,27.23
2023-07-14T09:34:22.306Z,27.64
2023-07-14T09:37:46.822Z,27.89
2023-07-14T09:40:52.102Z,28.21
2023-07-14T09:43:44.109Z,28.71
2023-07-14T09:47:18.974Z,28.72
2023-07-14T09:49:55.004Z,28.53
2023-07-14T09:53:08.446Z,28.56
2023-07-14T09:55:59.318Z,28.63
2023-07-14T09:58:51.147Z,28.87
2023-07-14T10:01:43.442Z,28.93
2023-07-14T10:04:20.949Z,28.86
2023-07-14T10:07:44.897Z,28.87
2023-07-14T10:10:44.124Z,28.69
2023-07-14T10:14:08.739Z,28.72
2023-07-14T10:16:42.561Z,28.70
2023-07-14T10:19:40.408Z,28.53
2023-07-14T10:22:33.327Z,28.57
2023-07-14T10:29:19.329Z,28.70
2023-07-14T10:32:14.388Z,29.06
2023-07-14T10:35:37.110Z,29.33
2023-07-14T10:38:24.581Z,29.09
2023-07-14T10:41:12.029Z,28.87
2023-07-14T10:50:25.374Z,28.89
2023-07-14T10:53:35.013Z,29.05
2023-07-14T10:56:17.374Z,29.24
2023-07-14T10:59:21.923Z,29.37
2023-07-14T11:02:32.588Z,29.53
2023-07-14T11:05:06.979Z,29.34
2023-07-14T11:07:55.661Z,29.34
2023-07-14T11:10:55.790Z,29.54
2023-07-14T11:14:00.504Z,29.59
2023-07-14T11:17:04.848Z,29.55
2023-07-14T11:19:53.788Z,29.38
2023-07-14T11:22:49.554Z,29.38
2023-07-14T11:25:50.557Z,29.65
2023-07-14T11:28:57.927Z,29.89
2023-07-14T11:31:34.153Z,29.89
2023-07-14T11:34:08.314Z,29.87
2023-07-14T11:37:17.954Z,30.10
2023-07-14T11:40:00.040Z,30.43
2023-07-14T11:42:46.717Z,30.61
2023-07-14T11:45:24.953Z,30.87
2023-07-14T11:48:08.546Z,30.88
2023-07-14T11:51:31.114Z,30.99
2023-07-14T11:54:51.634Z,31.21
2023-07-14T11:57:33.142Z,31.29
2023-07-14T12:00:07.770Z,31.34
2023-07-14T12:02:51.938Z,31.48
2023-07-14T12:06:16.612Z,31.60
2023-07-14T12:08:50.269Z,31.67
2023-07-14T12:11:41.119Z,31.90
2023-07-14T12:14:38.548Z,31.94
2023-07-14T12:17:39.145Z,32.12
2023-07-14T12:20:34.514Z,32.40
2023-07-14T12:23:27.843Z,32.63
2023-07-14T12:26:30.146Z,32.84
2023-07-14T12:29:02.087Z,32.78
2023-07-14T12:31:53.309Z,33.13
2023-07-14T12:34:34.016Z,33.32
2023-07-14T12:37:36.372Z,33.28
2023-07-14T12:40:08.103Z,33.32
2023-07-14T12:42:48.047Z,33.08
2023-07-14T12:45:17.730Z,32.66
2023-07-14T12:47:50.100Z,32.67
2023-07-14T12:50:42.416Z,32.97
2023-07-14T12:53:30.090Z,33.26
2023-07-14T12:56:43.190Z,33.35
2023-07-14T12:59:55.238Z,33.63
2023-07-14T13:02:47.917Z,34.08
2023-07-14T13:05:35.949Z,34.21
2023-07-14T13:08:29.582Z,34.14
2023-07-14T13:11:21.140Z,34.07
2023-07-14T13:14:44.483Z,33.94
2023-07-14T13:17:41.097Z,34.05
2023-07-14T13:20:18.488Z,34.10
2023-07-14T13:23:27.736Z,34.13
2023-07-14T13:26:49.920Z,33.94
2023-07-14T13:29:43.247Z,34.07
2023-07-14T13:32:32.941Z,34.15
2023-07-14T13:35:33.923Z,33.82
2023-07-14T13:38:08.445Z,33.59
2023-07-14T13:40:50.931Z,33.26
2023-07-14T13:43:23.414Z,33.15
2023-07-14T13:46:17.027Z,33.14
2023-07-14T13:49:04.718Z,32.88
2023-07-14T13:51:55.303Z,32.68
2023-07-14T13:54:31.597Z,32.20
2023-07-14T13:57:10.932Z,31.81
2023-07-14T14:00:40.235Z,31.61
2023-07-14T14:03:30.523Z,31.04
2023-07-14T14:06:04.178Z,30.69
2023-07-14T14:08:38.417Z,30.38
2023-07-14T14:11:12.798Z,30.20
2023-07-14T14:13:46.151Z,30.07
2023-07-14T14:16:16.646Z,29.82
2023-07-14T14:19:16.508Z,29.65
2023-07-14T14:21:48.424Z,29.51
2023-07-14T14:24:25.624Z,29.28
2023-07-14T14:26:58.451Z,28.95
2023-07-14T14:29:27.006Z,28.84
2023-07-14T14:31:55.142Z,28.78
2023-07-14T14:34:34.470Z,28.74
2023-07-14T14:37:04.976Z,28.77
2023-07-14T14:39:37.038Z,28.66
2023-07-14T14:42:26.122Z,28.42
2023-07-14T14:45:22.759Z,28.24
2023-07-14T14:48:01.664Z,28.17
2023-07-14T14:50:46.589Z,28.17
2023-07-14T14:53:57.744Z,28.19
2023-07-14T14:56:38.329Z,28.14
2023-07-14T14:59:09.304Z,28.03
2023-07-14T15:01:47.387Z,27.88
2023-07-14T15:04:41.976Z,27.83
2023-07-14T15:07:51.615Z,27.85
2023-07-14T15:10:21.115Z,27.76
2023-07-14T15:13:13.106Z,27.73
2023-07-14T15:15:43.702Z,27.72
2023-07-14T15:18:14.911Z,27.69
2023-07-14T15:21:06.941Z,27.69
2023-07-14T15:23:41.927Z,27.69
2023-07-14T15:27:00.630Z,27.62
2023-07-14T15:29:30.385Z,27.61
2023-07-14T15:32:49.325Z,27.61
2023-07-14T15:35:27.362Z,27.55
2023-07-14T15:37:59.666Z,27.46
2023-07-14T15:40:41.843Z,27.40
2023-07-14T15:43:39.241Z,27.34
2023-07-14T15:46:19.266Z,27.32
2023-07-14T15:49:11.917Z,27.27
2023-07-14T15:51:45.036Z,27.24
2023-07-14T15:54:26.756Z,27.16
2023-07-14T15:57:03.397Z,27.07
2023-07-14T15:59:34.340Z,26.98
2023-07-14T16:02:03.173Z,26.94
2023-07-14T16:04:52.173Z,26.94
2023-07-14T16:07:26.285Z,26.95
2023-07-14T16:09:55.147Z,26.92
2023-07-14T16:12:42.715Z,26.92
2023-07-14T16:15:33.021Z,26.84
2023-07-14T16:18:13.106Z,26.74
2023-07-14T16:20:43.605Z,26.66
2023-07-14T16:23:31.744Z,26.62
2023-07-14T16:26:00.247Z,26.59
2023-07-14T16:28:51.316Z,26.56
2023-07-14T16:31:22.321Z,26.49
2023-07-14T16:34:09.512Z,26.46
2023-07-14T16:37:28.519Z,26.40
2023-07-14T16:40:42.170Z,26.35
2023-07-14T16:43:30.412Z,26.29
2023-07-14T16:46:01.361Z,26.22
2023-07-14T16:48:32.530Z,26.13
2023-07-14T16:51:32.347Z,26.10
2023-07-14T16:54:13.175Z,26.04
2023-07-14T16:57:26.153Z,25.99
2023-07-14T17:00:17.314Z,25.94
2023-07-14T17:02:56.821Z,25.85
2023-07-14T17:06:15.380Z,25.81
2023-07-14T17:08:49.424Z,25.73
2023-07-14T17:11:24.341Z,25.68
2023-07-14T17:13:52.887Z,25.63
2023-07-14T17:16:35.417Z,25.60
2023-07-14T17:19:49.430Z,25.53
2023-07-14T17:22:48.861Z,25.44
2023-07-14T17:25:43.178Z,25.38
2023-07-14T17:28:37.668Z,25.33
2023-07-14T17:31:32.481Z,25.27
2023-07-14T17:34:34.532Z,25.19
2023-07-14T17:37:35.459Z,25.13
2023-07-14T17:40:44.883Z,25.04
2023-07-14T17:43:44.490Z,24.95
2023-07-14T17:46:56.705Z,24.85
2023-07-14T17:50:08.459Z,24.78
2023-07-14T17:52:58.863Z,24.66
2023-07-14T17:56:01.410Z,24.54
2023-07-14T17:59:31.442Z,24.44
2023-07-14T18:02:55.195Z,24.37
2023-07-14T18:06:17.544Z,24.32
2023-07-14T18:09:17.234Z,24.23
2023-07-14T18:12:29.343Z,24.10
2023-07-14T18:15:54.429Z,23.96
2023-07-14T18:19:14.330Z,23.85
2023-07-14T18:22:07.626Z,23.72
2023-07-14T18:25:15.742Z,23.57
2023-07-14T18:28:03.526Z,23.42
2023-07-14T18:31:07.992Z,23.24
2023-07-14T18:34:27.074Z,23.10
2023-07-14T18:37:48.875Z,22.96
2023-07-14T18:41:05.261Z,22.80
2023-07-14T18:44:22.431Z,22.64
2023-07-14T18:47:38.568Z,22.45
2023-07-14T18:50:38.296Z,22.30
2023-07-14T18:53:48.217Z,22.14
2023-07-14T18:57:06.755Z,21.97
2023-07-14T19:00:53.789Z,21.80
2023-07-14T19:04:38.483Z,21.66
2023-07-14T19:11:01.943Z,21.36
2023-07-14T19:14:09.449Z,21.19
2023-07-14T19:16:54.245Z,21.05
2023-07-14T19:19:34.723Z,20.93
2023-07-14T19:22:12.402Z,20.82
2023-07-14T19:25:13.265Z,20.72
2023-07-14T19:28:51.583Z,20.61
2023-07-14T19:31:48.419Z,20.50
2023-07-14T19:34:32.375Z,20.42
2023-07-14T19:37:48.538Z,20.38
2023-07-14T19:41:03.040Z,20.39
2023-07-14T19:43:54.575Z,20.35
2023-07-14T19:47:00.833Z,20.28
2023-07-14T19:50:16.885Z,20.20
2023-07-14T19:53:43.010Z,20.13
2023-07-14T19:56:41.508Z,20.01
2023-07-14T20:00:23.559Z,19.91
2023-07-14T20:03:54.308Z,19.80
2023-07-14T20:06:40.200Z,19.70
2023-07-14T20:09:42.684Z,19.62
2023-07-14T20:13:18.098Z,19.56
2023-07-14T20:17:06.848Z,19.48
2023-07-14T20:20:21.520Z,19.49
2023-07-14T20:23:22.926Z,19.52
2023-07-14T20:26:36.346Z,19.50
2023-07-14T20:30:01.230Z,19.43
2023-07-14T20:33:13.038Z,19.33
2023-07-14T20:36:23.010Z,19.25
2023-07-14T20:39:25.068Z,19.16
2023-07-14T20:42:39.406Z,19.07
2023-07-14T20:45:58.467Z,18.96
2023-07-14T20:49:37.692Z,18.88
2023-07-14T20:53:10.271Z,18.80
2023-07-14T20:56:43.531Z,18.71
2023-07-14T21:00:21.821Z,18.62
2023-07-14T21:03:47.510Z,18.58
2023-07-14T21:06:55.372Z,18.56
2023-07-14T21:10:19.447Z,18.57
2023-07-14T21:13:40.419Z,18.59
2023-07-14T21:17:07.147Z,18.61
2023-07-14T21:20:33.295Z,18.59
2023-07-14T21:24:11.709Z,18.54
2023-07-14T21:28:04.954Z,18.48
2023-07-14T21:31:32.006Z,18.38
2023-07-14T21:35:21.293Z,18.29
2023-07-14T21:38:37.818Z,18.23
2023-07-14T21:41:46.845Z,18.13
2023-07-14T21:45:36.891Z,18.01
2023-07-14T21:49:17.007Z,17.86
2023-07-14T22:42:00.660Z,17.50
2023-07-14T22:45:48.422Z,17.44
2023-07-14T22:49:27.863Z,17.46
2023-07-14T22:53:18.818Z,17.48
2023-07-14T22:57:00.429Z,17.45
